createdAt,value
2023-04-15T00:04:53.514Z,99882.41
2023-04-15T00:09:59.131Z,99881.70
2023-04-15T00:15:05.492Z,99880.88
2023-04-15T00:20:12.194Z,99880.77
2023-04-15T00:25:18.033Z,99877.59
2023-04-15T00:30:24.098Z,99873.31
2023-04-15T00:35:29.881Z,99871.53
2023-04-15T00:40:35.726Z,99870.23
2023-04-15T00:45:41.258Z,99867.38
2023-04-15T00:50:47.048Z,99873.48
2023-04-15T00:55:52.715Z,99870.48
2023-04-15T01:01:00.120Z,99869.28
2023-04-15T01:06:06.634Z,99865.06
2023-04-15T01:11:14.922Z,99871.72
2023-04-15T01:16:21.309Z,99868.16
2023-04-15T01:21:26.973Z,99868.42
2023-04-15T01:26:32.544Z,99860.97
2023-04-15T01:31:38.681Z,99862.05
2023-04-15T01:36:44.973Z,99859.63
2023-04-15T01:41:50.410Z,99854.05
2023-04-15T01:46:56.037Z,99854.76
2023-04-15T01:52:01.945Z,99857.60
2023-04-15T01:57:07.746Z,99856.85
2023-04-15T02:02:13.422Z,99859.08
2023-04-15T02:07:19.635Z,99858.50
2023-04-15T02:12:25.593Z,99859.98
2023-04-15T02:17:35.168Z,99855.40
2023-04-15T02:22:40.868Z,99853.70
2023-04-15T02:27:46.542Z,99854.36
2023-04-15T02:32:52.522Z,99852.65
2023-04-15T02:37:58.063Z,99851.66
2023-04-15T02:43:05.397Z,99850.73
2023-04-15T02:48:11.633Z,99850.31
2023-04-15T02:53:17.613Z,99854.59
2023-04-15T02:58:23.174Z,99852.64
2023-04-15T03:03:28.836Z,99853.08
2023-04-15T03:08:34.389Z,99854.95
2023-04-15T03:13:41.919Z,99853.88
2023-04-15T03:18:51.989Z,99854.16
2023-04-15T03:23:58.430Z,99854.76
2023-04-15T03:29:04.114Z,99853.16
2023-04-15T03:34:09.898Z,99853.80
2023-04-15T03:39:15.991Z,99855.23
2023-04-15T03:44:21.413Z,99855.78
2023-04-15T03:49:26.811Z,99854.23
2023-04-15T03:54:32.354Z,99858.84
2023-04-15T03:59:37.871Z,99860.95
2023-04-15T04:04:43.891Z,99864.00
2023-04-15T04:09:49.371Z,99870.45
2023-04-15T04:14:54.729Z,99867.96
2023-04-15T04:20:00.252Z,99870.70
2023-04-15T04:25:07.215Z,99866.73
2023-04-15T04:30:13.724Z,99865.79
2023-04-15T04:35:19.315Z,99869.20
2023-04-15T04:40:25.078Z,99870.08
2023-04-15T04:45:30.847Z,99872.69
2023-04-15T04:50:36.716Z,99873.80
2023-04-15T04:55:43.459Z,99868.96
2023-04-15T05:00:49.423Z,99868.48
2023-04-15T05:05:55.155Z,99868.67
2023-04-15T05:11:00.938Z,99868.80
2023-04-15T05:16:07.721Z,99873.39
2023-04-15T05:21:14.803Z,99871.49
2023-04-15T05:26:21.715Z,99869.40
2023-04-15T05:31:27.481Z,99873.52
2023-04-15T05:36:33.094Z,99873.34
2023-04-15T05:41:38.560Z,99873.89
2023-04-15T05:46:44.435Z,99876.77
2023-04-15T05:51:50.148Z,99880.50
2023-04-15T05:56:57.595Z,99879.40
2023-04-15T06:02:03.112Z,99885.51
2023-04-15T06:07:08.760Z,99883.80
2023-04-15T06:12:14.858Z,99885.66
2023-04-15T06:17:20.326Z,99884.13
2023-04-15T06:22:26.209Z,99891.30
2023-04-15T06:27:32.041Z,99893.22
2023-04-15T06:38:29.372Z,99897.94
2023-04-15T06:43:35.113Z,99905.30
2023-04-15T06:48:41.706Z,99903.38
2023-04-15T06:53:47.722Z,99906.82
2023-04-15T06:58:53.205Z,99913.90
2023-04-15T07:03:58.865Z,99916.20
2023-04-15T07:09:05.723Z,99922.77
2023-04-15T07:14:11.542Z,99922.48
2023-04-15T07:19:17.517Z,99924.98
2023-04-15T07:24:26.715Z,99926.35
2023-04-15T07:29:32.489Z,99925.29
2023-04-15T07:34:38.160Z,99925.02
2023-04-15T07:39:43.880Z,99928.20
2023-04-15T07:44:49.280Z,99922.71
2023-04-15T07:49:54.682Z,99926.13
2023-04-15T07:55:00.357Z,99927.50
2023-04-15T08:00:07.974Z,99922.69
2023-04-15T08:05:19.958Z,99925.83
2023-04-15T08:10:25.917Z,99922.63
2023-04-15T08:15:33.043Z,99921.90
2023-04-15T08:20:38.446Z,99923.63
2023-04-15T08:25:44.113Z,99925.78
2023-04-15T08:30:49.767Z,99924.88
2023-04-15T08:35:55.111Z,99925.46
2023-04-15T08:41:04.392Z,99928.27
2023-04-15T08:46:12.540Z,99931.13
2023-04-15T08:51:18.565Z,99930.03
2023-04-15T08:56:27.137Z,99934.75
2023-04-15T09:01:33.354Z,99938.92
2023-04-15T09:06:42.108Z,99941.90
2023-04-15T09:11:47.815Z,99938.76
2023-04-15T09:17:00.882Z,99937.44
2023-04-15T09:22:06.588Z,99935.27
2023-04-15T09:27:16.265Z,99941.52
2023-04-15T09:32:25.238Z,99945.08
2023-04-15T09:37:37.769Z,99938.04
2023-04-15T09:42:57.918Z,99943.55
2023-04-15T09:48:18.733Z,99944.15
2023-04-15T09:53:26.008Z,99952.02
2023-04-15T09:58:33.725Z,99953.71
2023-04-15T10:03:43.052Z,99955.12
2023-04-15T10:08:49.799Z,99960.88
2023-04-15T10:13:56.447Z,99957.75
2023-04-15T10:19:04.802Z,99955.34
2023-04-15T10:24:10.891Z,99957.04
2023-04-15T10:29:16.741Z,99955.20
2023-04-15T10:34:24.225Z,99954.41
2023-04-15T10:39:44.580Z,99956.02
2023-04-15T10:44:56.901Z,99953.08
2023-04-15T10:50:03.657Z,99952.11
2023-04-15T10:55:16.404Z,99950.35
2023-04-15T11:00:26.901Z,99951.90
2023-04-15T11:05:52.481Z,99953.05
2023-04-15T11:10:58.556Z,99951.11
2023-04-15T11:16:04.566Z,99948.18
2023-04-15T11:21:10.422Z,99947.45
2023-04-15T11:26:16.252Z,99951.77
2023-04-15T11:31:23.960Z,99949.46
2023-04-15T11:36:32.222Z,99954.38
2023-04-15T11:41:38.506Z,99956.59
2023-04-15T11:46:45.672Z,99954.80
2023-04-15T11:51:51.359Z,99957.70
2023-04-15T11:56:57.465Z,99958.19
2023-04-15T12:02:14.117Z,99962.69
2023-04-15T12:07:19.804Z,99968.67
2023-04-15T12:12:28.855Z,99970.30
2023-04-15T12:17:51.535Z,99981.79
2023-04-15T12:23:07.130Z,99998.48
2023-04-15T12:28:13.791Z,100001.52
2023-04-15T12:33:19.405Z,100002.73
2023-04-15T12:38:25.359Z,100007.95
2023-04-15T12:43:31.323Z,100009.64
2023-04-15T12:48:36.737Z,100015.27
2023-04-15T12:53:42.666Z,100025.05
2023-04-15T12:58:48.328Z,100029.42
2023-04-15T13:03:54.254Z,100036.89
2023-04-15T13:09:02.348Z,100042.23
2023-04-15T13:14:11.893Z,100045.10
2023-04-15T13:19:17.771Z,100056.20
2023-04-15T13:24:23.510Z,100066.35
2023-04-15T13:29:29.208Z,100075.90
2023-04-15T13:34:34.747Z,100078.90
2023-04-15T13:39:41.710Z,100076.33
2023-04-15T13:44:47.141Z,100074.92
2023-04-15T13:49:54.218Z,100076.20
2023-04-15T13:55:18.406Z,100083.48
2023-04-15T14:00:25.508Z,100077.86
2023-04-15T14:05:31.110Z,100083.30
2023-04-15T14:10:36.653Z,100084.94
2023-04-15T14:15:42.444Z,100070.94
2023-04-15T14:20:47.851Z,100081.06
2023-04-15T14:25:53.411Z,100084.27
2023-04-15T14:30:58.948Z,100089.98
2023-04-15T14:36:04.910Z,100093.64
2023-04-15T14:41:11.119Z,100091.48
2023-04-15T14:46:16.949Z,100090.55
2023-04-15T14:51:23.033Z,100095.70
2023-04-15T14:56:28.578Z,100100.89
2023-04-15T15:01:34.802Z,100106.97
2023-04-15T15:06:42.566Z,100109.02
2023-04-15T15:11:48.099Z,100119.56
2023-04-15T15:16:53.570Z,100130.90
2023-04-15T15:21:58.954Z,100133.13
2023-04-15T15:27:05.988Z,100129.91
2023-04-15T15:32:11.775Z,100135.58
2023-04-15T15:37:17.858Z,100135.80
2023-04-15T15:42:23.485Z,100142.10
2023-04-15T15:47:29.265Z,100142.38
2023-04-15T15:52:34.719Z,100143.00
2023-04-15T15:57:41.091Z,100142.25
2023-04-15T16:07:55.256Z,100147.23
2023-04-15T16:13:01.924Z,100151.73
2023-04-15T16:18:07.482Z,100156.05
2023-04-15T16:23:15.581Z,100159.30
2023-04-15T16:28:26.770Z,100168.89
2023-04-15T16:33:33.861Z,100171.85
2023-04-15T16:38:39.484Z,100180.73
2023-04-15T16:43:46.107Z,100188.73
2023-04-15T16:48:51.638Z,100194.35
2023-04-15T16:53:57.050Z,100202.45
2023-04-15T16:59:02.824Z,100208.12
2023-04-15T17:04:08.694Z,100222.23
2023-04-15T17:09:14.316Z,100230.21
2023-04-15T17:14:20.280Z,100233.34
2023-04-15T17:19:26.809Z,100240.33
2023-04-15T17:24:32.589Z,100243.23
2023-04-15T17:29:39.706Z,100246.84
2023-04-15T17:34:49.897Z,100245.02
2023-04-15T17:39:56.742Z,100249.70
2023-04-15T17:45:02.344Z,100253.13
2023-04-15T17:50:10.283Z,100260.34
2023-04-15T17:55:15.793Z,100268.06
2023-04-15T18:00:23.105Z,100277.38
2023-04-15T18:05:29.601Z,100289.95
2023-04-15T18:10:36.486Z,100305.02
2023-04-15T18:15:42.067Z,100321.00
2023-04-15T18:20:47.464Z,100327.98
2023-04-15T18:25:53.324Z,100336.64
2023-04-15T18:30:59.282Z,100341.98
2023-04-15T18:36:05.961Z,100344.23
2023-04-15T18:41:12.601Z,100350.67
2023-04-15T18:46:19.047Z,100356.09
2023-04-15T18:51:24.989Z,100360.63
2023-04-15T18:56:32.187Z,100369.70
2023-04-15T19:01:38.152Z,100375.29
2023-04-15T19:06:46.640Z,100379.80
2023-04-15T19:11:52.352Z,100384.38
2023-04-15T19:16:57.879Z,100385.00
2023-04-15T19:22:04.945Z,100386.95
2023-04-15T19:27:10.643Z,100383.87
2023-04-15T19:32:16.519Z,100382.95
2023-04-15T19:37:22.550Z,100391.02
2023-04-15T19:42:28.072Z,100395.77
2023-04-15T19:47:35.216Z,100392.29
2023-04-15T19:52:41.834Z,100406.50
2023-04-15T19:57:47.382Z,100407.59
2023-04-15T20:02:53.088Z,100414.41
2023-04-15T20:07:59.909Z,100420.05
2023-04-15T20:13:06.138Z,100423.40
2023-04-15T20:18:11.872Z,100427.07
2023-04-15T20:23:17.616Z,100432.84
2023-04-15T20:28:26.198Z,100429.13
2023-04-15T20:33:31.843Z,100428.58
2023-04-15T20:38:37.559Z,100430.04
2023-04-15T20:43:43.365Z,100432.02
2023-04-15T20:48:48.784Z,100434.64
2023-04-15T20:53:54.184Z,100434.55
2023-04-15T20:59:00.360Z,100439.63
2023-04-15T21:04:06.166Z,100441.11
2023-04-15T21:09:11.698Z,100438.30
2023-04-15T21:14:17.368Z,100439.86
2023-04-15T21:19:22.701Z,100438.02
2023-04-15T21:24:28.501Z,100439.11
2023-04-15T21:29:34.190Z,100441.73
2023-04-15T21:34:40.019Z,100441.14
2023-04-15T21:39:45.438Z,100446.33
2023-04-15T21:44:50.887Z,100445.38
2023-04-15T21:49:56.320Z,100444.74
2023-04-15T21:55:01.956Z,100448.05
2023-04-15T22:00:10.826Z,100447.34
2023-04-15T22:05:16.743Z,100450.45
2023-04-15T22:10:22.975Z,100454.59
2023-04-15T22:15:28.911Z,100456.46
2023-04-15T22:20:34.532Z,100465.52
2023-04-15T22:25:41.148Z,100464.88
2023-04-15T22:30:46.543Z,100473.52
2023-04-15T22:38:46.497Z,100474.64
2023-04-15T22:43:51.840Z,100481.19
2023-04-15T22:48:57.197Z,100489.00
2023-04-15T22:54:02.705Z,100492.84
2023-04-15T22:59:08.493Z,100495.79
2023-04-15T23:04:26.266Z,100498.67
2023-04-15T23:09:33.230Z,100495.77
2023-04-15T23:14:38.767Z,100504.30
2023-04-15T23:19:44.814Z,100505.71
2023-04-15T23:24:50.327Z,100499.30
2023-04-15T23:29:56.185Z,100498.73
2023-04-15T23:35:01.542Z,100503.92
2023-04-15T23:40:09.742Z,100499.98
2023-04-15T23:45:15.171Z,100501.15
2023-04-15T23:50:20.687Z,100498.83
2023-04-15T23:55:26.766Z,100503.01
